Time;durP1;ratioP1;P1;durP2;ratioP2;P2;SDS_P1;SDS_P2;PMS_P1;PMS_P2;Temp;Humidity;BMP_temperature;BMP_pressure;BME280_temperature;BME280_humidity;BME280_pressure;Samples;Min_cycle;Max_cycle;Signal;HPM_P1;HPM_P2
2022/09/29 00:01:05;;;;;;;3.75;0.88;;;;;;;12.02;71.38;99578.56;7384838;19;20720;-65
2022/09/29 00:03:35;;;;;;;2.97;0.70;;;;;;;12.00;72.15;99573.47;7384591;19;20030;-65
2022/09/29 00:06:03;;;;;;;3.28;0.80;;;;;;;11.95;71.88;99567.16;7382900;19;20456;-65
2022/09/29 00:08:35;;;;;;;3.67;1.02;;;;;;;11.91;72.28;99574.66;7382138;19;20025;-65
2022/09/29 00:11:13;;;;;;;3.58;1.00;;;;;;;11.88;72.15;99567.13;7386163;19;20084;-64
2022/09/29 00:13:41;;;;;;;3.60;1.10;;;;;;;11.83;72.38;99574.00;7384235;19;20053;-65
2022/09/29 00:16:08;;;;;;;4.18;1.02;;;;;;;11.78;72.65;99573.75;7387249;19;20006;-65
2022/09/29 00:18:36;;;;;;;3.10;0.98;;;;;;;11.77;73.11;99572.94;7391776;19;20011;-65
2022/09/29 00:21:08;;;;;;;3.60;1.17;;;;;;;11.76;72.66;99567.84;7392732;19;20014;-65
2022/09/29 00:23:42;;;;;;;4.22;0.90;;;;;;;11.74;73.14;99565.38;7390942;19;20578;-64
2022/09/29 00:26:14;;;;;;;6.75;1.45;;;;;;;11.73;73.57;99562.97;7390756;19;20121;-64
2022/09/29 00:29:05;;;;;;;4.72;0.85;;;;;;;11.69;73.57;99572.19;7389250;19;20097;-64
2022/09/29 00:31:44;;;;;;;2.67;0.90;;;;;;;11.67;73.59;99564.50;7392706;19;20014;-66
2022/09/29 00:34:12;;;;;;;3.88;0.85;;;;;;;11.62;73.76;99566.09;7390569;19;20014;-65
2022/09/29 00:36:40;;;;;;;4.50;1.05;;;;;;;11.58;73.88;99565.63;7391654;19;20045;-66
2022/09/29 00:39:11;;;;;;;2.80;1.00;;;;;;;11.55;73.90;99564.22;7388457;19;20011;-70
2022/09/29 00:41:43;;;;;;;6.68;1.00;;;;;;;11.54;74.02;99570.47;7392312;19;20014;-64
2022/09/29 00:44:13;;;;;;;3.70;1.08;;;;;;;11.54;74.04;99562.56;7388689;19;20049;-65
2022/09/29 00:46:41;;;;;;;6.25;1.05;;;;;;;11.52;74.37;99564.59;7388646;19;20431;-64
2022/09/29 00:49:22;;;;;;;2.25;0.85;;;;;;;11.52;74.55;99561.97;7387675;19;20047;-64
2022/09/29 00:52:25;;;;;;;2.95;0.98;;;;;;;11.53;74.77;99558.31;7391732;19;20222;-65
2022/09/29 00:54:57;;;;;;;6.70;1.23;;;;;;;11.50;74.23;99555.25;7386084;19;20378;-65
2022/09/29 00:57:29;;;;;;;5.07;1.23;;;;;;;11.48;74.28;99552.78;7390544;19;20014;-64
2022/09/29 01:00:10;;;;;;;5.93;1.30;;;;;;;11.51;74.15;99556.88;7391070;19;20478;-65
2022/09/29 01:02:43;;;;;;;5.13;1.35;;;;;;;11.51;74.09;99539.25;7388414;19;20019;-65
2022/09/29 01:05:15;;;;;;;5.97;1.15;;;;;;;11.50;74.01;99547.34;7390094;19;20471;-64
2022/09/29 01:07:43;;;;;;;3.25;1.30;;;;;;;11.48;74.24;99542.25;7390923;19;20034;-64
2022/09/29 01:10:13;;;;;;;2.90;1.13;;;;;;;11.48;74.17;99551.97;7388629;19;20011;-64
2022/09/29 01:12:41;;;;;;;3.20;1.05;;;;;;;11.48;74.49;99544.88;7389906;19;20034;-65
2022/09/29 01:15:08;;;;;;;7.28;1.55;;;;;;;11.49;74.74;99536.00;7388896;19;20328;-65
2022/09/29 01:17:35;;;;;;;4.88;1.60;;;;;;;11.46;74.56;99539.00;7389845;19;20043;-65
2022/09/29 01:20:19;;;;;;;4.45;1.23;;;;;;;11.47;75.00;99545.91;7388868;19;20347;-66
2022/09/29 01:22:57;;;;;;;5.05;1.20;;;;;;;11.44;75.08;99543.66;7388012;19;20030;-65
2022/09/29 01:25:43;;;;;;;2.95;1.05;;;;;;;11.44;75.22;99542.81;7388916;19;20011;-66
2022/09/29 01:28:28;;;;;;;5.78;1.60;;;;;;;11.40;75.22;99542.41;7388828;19;20017;-64
2022/09/29 01:31:21;;;;;;;4.00;1.38;;;;;;;11.37;75.28;99534.91;7390002;19;20470;-64
2022/09/29 01:33:53;;;;;;;3.80;1.40;;;;;;;11.34;75.68;99539.69;7388669;19;20275;-64
2022/09/29 01:36:26;;;;;;;4.47;1.70;;;;;;;11.29;76.20;99544.72;7389513;19;20692;-65
2022/09/29 01:39:17;;;;;;;5.25;1.70;;;;;;;11.28;76.33;99540.47;7386999;19;20066;-65
2022/09/29 01:41:56;;;;;;;4.32;1.73;;;;;;;11.19;76.35;99547.69;7389937;19;20018;-65
2022/09/29 01:44:28;;;;;;;5.93;1.70;;;;;;;11.18;76.53;99538.16;7388612;19;20049;-65
2022/09/29 01:47:00;;;;;;;3.35;1.45;;;;;;;11.20;76.72;99524.81;7385547;19;20022;-65
2022/09/29 01:49:32;;;;;;;5.97;1.77;;;;;;;11.19;76.34;99534.50;7388433;19;20025;-65
2022/09/29 01:52:05;;;;;;;8.65;4.32;;;;;;;11.21;76.84;99537.78;7390436;19;20006;-64
2022/09/29 01:54:51;;;;;;;;;;;;;;;11.22;77.37;99534.16;7388222;19;20033;-64
2022/09/29 01:57:27;;;;;;;5.55;1.90;;;;;;;11.21;76.44;99534.34;7389035;19;19922;-65
2022/09/29 02:00:04;;;;;;;4.32;1.40;;;;;;;11.19;76.38;99531.88;7388223;19;20034;-65
2022/09/29 02:02:43;;;;;;;6.72;2.17;;;;;;;11.18;76.37;99532.88;7386334;19;20033;-64
2022/09/29 02:05:19;;;;;;;4.97;2.05;;;;;;;11.15;76.10;99530.63;7386258;19;20037;-65
2022/09/29 02:07:47;;;;;;;6.75;2.05;;;;;;;11.18;77.08;99532.06;7386932;19;20007;-65
2022/09/29 02:10:22;;;;;;;4.43;1.77;;;;;;;11.20;76.95;99530.06;7387807;19;20010;-65
2022/09/29 02:12:52;;;;;;;4.63;2.00;;;;;;;11.22;76.67;99538.59;7387785;19;20010;-65
2022/09/29 02:15:25;;;;;;;4.47;1.50;;;;;;;11.18;76.51;99543.41;7388071;19;20010;-64
2022/09/29 02:17:53;;;;;;;;;;;;;;;11.18;76.27;99534.69;7388595;19;20034;-65
2022/09/29 02:20:21;;;;;;;3.80;1.60;;;;;;;11.10;76.37;99540.91;7387422;19;20399;-65
2022/09/29 02:22:48;;;;;;;4.60;1.67;;;;;;;11.05;77.08;99530.97;7387627;19;20013;-65
2022/09/29 02:25:18;;;;;;;5.93;1.88;;;;;;;11.01;76.97;99540.22;7386889;19;20019;-63
2022/09/29 02:27:47;;;;;;;4.60;1.98;;;;;;;10.97;76.88;99538.94;7387967;19;20550;-64
2022/09/29 02:30:14;;;;;;;7.05;1.70;;;;;;;10.97;77.14;99544.22;7385965;19;20019;-66
2022/09/29 02:32:40;;;;;;;2.95;1.65;;;;;;;10.95;77.12;99542.78;7386425;19;20019;-65
2022/09/29 02:35:12;;;;;;;5.00;1.75;;;;;;;10.93;77.26;99547.41;7386671;19;20018;-65
2022/09/29 02:38:04;;;;;;;3.13;1.35;;;;;;;10.93;77.38;99540.34;7386747;19;20380;-67
2022/09/29 02:40:55;;;;;;;3.55;1.55;;;;;;;10.94;77.38;99538.53;7384289;19;20038;-65
2022/09/29 02:43:41;;;;;;;5.13;1.30;;;;;;;10.90;77.32;99551.25;7388126;19;20482;-64
2022/09/29 02:46:37;;;;;;;8.73;1.80;;;;;;;10.86;77.52;99536.84;7386227;19;20043;-67
2022/09/29 02:49:25;;;;;;;10.13;3.92;;;;;;;10.88;78.13;99541.91;7386138;19;20032;-64
2022/09/29 02:51:58;;;;;;;4.38;1.85;;;;;;;10.86;78.02;99536.84;7386467;19;20014;-64
2022/09/29 02:54:37;;;;;;;4.28;1.50;;;;;;;10.87;77.67;99537.66;7385146;19;20010;-65
2022/09/29 02:57:16;;;;;;;5.30;1.55;;;;;;;10.85;78.02;99537.03;7387799;19;20042;-64
2022/09/29 03:00:09;;;;;;;3.72;1.67;;;;;;;10.83;77.60;99533.75;7386474;19;21104;-66
2022/09/29 03:02:37;;;;;;;10.23;6.22;;;;;;;10.82;77.92;99532.13;7387196;19;20037;-65
2022/09/29 03:05:09;;;;;;;9.23;2.25;;;;;;;10.85;78.66;99532.56;7386237;19;20019;-67
2022/09/29 03:07:37;;;;;;;4.88;1.58;;;;;;;10.82;77.96;99534.78;7387997;19;20458;-66
2022/09/29 03:10:06;;;;;;;5.97;1.95;;;;;;;10.78;77.63;99531.69;7383235;19;20014;-66
2022/09/29 03:12:33;;;;;;;4.10;1.48;;;;;;;10.78;77.82;99534.31;7385539;19;20057;-64
2022/09/29 03:15:00;;;;;;;4.60;1.42;;;;;;;10.79;78.06;99535.94;7385394;19;20463;-66
2022/09/29 03:17:27;;;;;;;3.42;1.63;;;;;;;10.80;77.92;99532.31;7385329;19;20018;-64
2022/09/29 03:19:54;;;;;;;3.22;1.52;;;;;;;10.81;77.97;99531.31;7384500;19;20115;-65
2022/09/29 03:22:21;;;;;;;3.83;1.50;;;;;;;10.81;77.92;99533.13;7383904;19;21669;-65
2022/09/29 03:24:48;;;;;;;2.75;1.60;;;;;;;10.78;78.00;99528.22;7384064;19;20025;-64
2022/09/29 03:27:16;;;;;;;4.43;1.55;;;;;;;10.73;78.04;99529.59;7383240;19;20102;-66
2022/09/29 03:29:42;;;;;;;5.15;1.33;;;;;;;10.72;78.30;99529.78;7385152;19;20753;-64
2022/09/29 03:32:09;;;;;;;4.85;1.42;;;;;;;10.71;78.15;99531.63;7387223;19;20014;-65
2022/09/29 03:34:36;;;;;;;3.55;1.50;;;;;;;10.75;78.77;99533.88;7384641;19;20018;-65
2022/09/29 03:37:03;;;;;;;3.22;1.38;;;;;;;10.76;78.55;99538.13;7386357;19;20017;-64
2022/09/29 03:39:30;;;;;;;4.20;1.33;;;;;;;10.77;78.27;99535.31;7383743;19;20022;-65
2022/09/29 03:41:56;;;;;;;3.42;1.13;;;;;;;10.77;78.26;99545.81;7385338;19;20474;-65
2022/09/29 03:44:23;;;;;;;4.00;1.50;;;;;;;10.76;78.24;99544.22;7385377;19;20537;-64
2022/09/29 03:46:50;;;;;;;2.88;1.23;;;;;;;10.75;78.43;99547.03;7385427;19;20018;-64
2022/09/29 03:49:17;;;;;;;4.57;1.83;;;;;;;10.73;78.27;99539.31;7381824;19;20011;-65
2022/09/29 03:51:44;;;;;;;4.13;1.30;;;;;;;10.72;78.24;99542.94;7382709;19;20010;-65
2022/09/29 03:54:11;;;;;;;3.50;1.40;;;;;;;10.71;78.26;99538.69;7384321;19;20522;-66
2022/09/29 03:56:38;;;;;;;3.95;1.30;;;;;;;10.69;78.47;99528.34;7383294;19;20019;-65
2022/09/29 03:59:08;;;;;;;4.85;1.70;;;;;;;10.67;78.24;99540.88;7383545;19;20017;-65
2022/09/29 04:01:36;;;;;;;6.55;1.73;;;;;;;10.67;78.60;99543.50;7385581;19;20468;-65
2022/09/29 04:04:05;;;;;;;3.17;1.50;;;;;;;10.69;78.46;99545.94;7383193;19;20344;-64
2022/09/29 04:06:32;;;;;;;2.80;1.17;;;;;;;10.68;78.22;99546.94;7384279;19;20018;-64
2022/09/29 04:08:59;;;;;;;5.35;1.33;;;;;;;10.66;78.50;99548.97;7385531;19;20050;-65
2022/09/29 04:11:27;;;;;;;5.50;1.58;;;;;;;10.62;78.80;99553.75;7384804;19;20494;-65
2022/09/29 04:13:54;;;;;;;3.30;2.15;;;;;;;10.63;78.93;99552.75;7383793;19;20023;-65
2022/09/29 04:16:21;;;;;;;4.95;1.60;;;;;;;10.65;79.65;99558.66;7385538;19;20494;-65
2022/09/29 04:18:48;;;;;;;2.97;1.30;;;;;;;10.65;79.46;99561.28;7384178;19;20035;-64
2022/09/29 04:21:15;;;;;;;3.80;1.50;;;;;;;10.61;78.82;99557.41;7385252;19;20014;-64
2022/09/29 04:23:42;;;;;;;4.00;1.23;;;;;;;10.59;79.06;99567.28;7382473;19;20022;-64
2022/09/29 04:26:09;;;;;;;3.45;1.58;;;;;;;10.61;79.45;99560.03;7381489;19;20007;-65
2022/09/29 04:28:37;;;;;;;3.72;1.35;;;;;;;10.60;79.44;99568.94;7383259;19;20014;-63
2022/09/29 04:31:04;;;;;;;4.25;1.65;;;;;;;10.60;79.55;99568.94;7383120;19;20428;-64
2022/09/29 04:33:39;;;;;;;3.05;1.52;;;;;;;10.59;79.40;99574.34;7381820;19;20366;-64
2022/09/29 04:36:06;;;;;;;3.35;1.30;;;;;;;10.58;79.41;99572.72;7383914;19;20376;-64
2022/09/29 04:38:33;;;;;;;5.50;1.40;;;;;;;10.58;79.63;99570.09;7379361;19;20353;-66
2022/09/29 04:41:00;;;;;;;3.38;1.25;;;;;;;10.60;79.94;99571.56;7383900;19;20014;-65
2022/09/29 04:43:27;;;;;;;5.82;1.80;;;;;;;10.59;79.53;99575.19;7383274;19;20014;-65
2022/09/29 04:46:04;;;;;;;4.88;1.40;;;;;;;10.60;79.74;99583.88;7383048;19;20038;-65
2022/09/29 04:48:31;;;;;;;3.33;1.33;;;;;;;10.58;79.56;99580.63;7383179;19;20018;-65
2022/09/29 04:51:03;;;;;;;2.65;1.10;;;;;;;10.61;79.86;99586.34;7383635;19;20049;-65
2022/09/29 04:53:36;;;;;;;3.13;1.17;;;;;;;10.57;79.86;99587.69;7382870;19;20023;-65
2022/09/29 04:56:07;;;;;;;3.55;1.10;;;;;;;10.59;79.57;99587.50;7383049;19;20038;-65
2022/09/29 04:58:35;;;;;;;3.13;1.40;;;;;;;10.63;79.90;99586.13;7383778;19;20038;-65
2022/09/29 05:01:12;;;;;;;4.72;1.30;;;;;;;10.68;79.90;99595.13;7382553;19;20011;-65
2022/09/29 05:03:40;;;;;;;5.35;1.50;;;;;;;10.71;79.69;99592.13;7387105;19;20019;-66
2022/09/29 05:06:08;;;;;;;2.28;0.95;;;;;;;10.74;79.20;99604.09;7390752;19;20348;-65
2022/09/29 05:08:35;;;;;;;5.63;1.20;;;;;;;10.76;79.06;99603.91;7388931;19;20014;-65
2022/09/29 05:11:05;;;;;;;3.95;1.27;;;;;;;10.75;78.92;99604.91;7391145;19;20046;-65
2022/09/29 05:13:42;;;;;;;3.67;1.08;;;;;;;10.74;78.82;99598.81;7390549;19;20569;-65
2022/09/29 05:16:09;;;;;;;3.80;1.55;;;;;;;10.78;79.09;99601.91;7391052;19;20538;-65
2022/09/29 05:18:36;;;;;;;3.30;0.90;;;;;;;10.80;78.79;99599.91;7390826;19;20550;-65
2022/09/29 05:21:05;;;;;;;4.03;1.20;;;;;;;10.79;79.03;99604.34;7389869;19;20013;-64
2022/09/29 05:23:52;;;;;;;2.50;0.93;;;;;;;10.81;79.05;99607.63;7386885;19;20011;-64
2022/09/29 05:26:18;;;;;;;7.15;5.63;;;;;;;10.82;80.08;99603.19;7391471;19;20796;-66
2022/09/29 05:28:47;;;;;;;2.97;1.30;;;;;;;10.87;80.87;99603.44;7386720;19;20060;-64
2022/09/29 05:31:14;;;;;;;3.05;1.60;;;;;;;10.87;79.57;99603.44;7390777;19;20538;-65
2022/09/29 05:33:41;;;;;;;2.83;1.00;;;;;;;10.85;78.93;99605.44;7389002;19;20373;-64
2022/09/29 05:36:10;;;;;;;4.43;1.27;;;;;;;10.83;79.05;99613.50;7391378;19;20018;-65
2022/09/29 05:38:37;;;;;;;3.45;1.10;;;;;;;10.86;79.04;99615.78;7387110;19;20019;-66
2022/09/29 05:41:09;;;;;;;4.07;1.25;;;;;;;10.87;78.96;99608.69;7390890;19;20014;-65
2022/09/29 05:43:43;;;;;;;3.88;1.25;;;;;;;10.90;79.35;99613.59;7389832;19;20364;-65
2022/09/29 05:46:10;;;;;;;4.18;1.15;;;;;;;10.94;78.96;99614.84;7388651;19;20038;-65
2022/09/29 05:48:37;;;;;;;2.38;1.00;;;;;;;10.95;78.53;99616.47;7387219;19;20478;-65
2022/09/29 05:51:13;;;;;;;4.85;0.98;;;;;;;10.97;78.31;99622.38;7388676;19;20014;-64
2022/09/29 05:53:46;;;;;;;3.55;1.10;;;;;;;10.98;78.16;99619.53;7387445;19;20388;-65
2022/09/29 05:56:18;;;;;;;3.55;1.08;;;;;;;11.02;78.23;99622.66;7389708;19;20010;-67
2022/09/29 05:58:46;;;;;;;8.68;1.10;;;;;;;11.01;78.60;99616.56;7387151;19;20494;-64
2022/09/29 06:01:18;;;;;;;2.38;0.98;;;;;;;11.03;78.44;99622.44;7388085;19;20488;-65
2022/09/29 06:03:46;;;;;;;2.38;0.80;;;;;;;11.06;78.19;99627.34;7385347;19;20017;-65
2022/09/29 06:06:25;;;;;;;4.05;0.93;;;;;;;11.05;78.08;99632.78;7388506;19;20522;-65
2022/09/29 06:08:52;;;;;;;1.98;1.05;;;;;;;11.03;77.85;99634.78;7387110;19;20049;-64
2022/09/29 06:11:22;;;;;;;2.85;0.93;;;;;;;11.02;78.01;99636.59;7387713;19;20010;-68
2022/09/29 06:13:51;;;;;;;3.00;0.90;;;;;;;11.05;78.17;99644.13;7385134;19;20018;-67
2022/09/29 06:16:20;;;;;;;5.70;1.30;;;;;;;11.03;78.02;99640.84;7389933;19;20093;-67
2022/09/29 06:18:48;;;;;;;3.30;1.10;;;;;;;11.05;78.63;99638.06;7385663;19;20043;-67
2022/09/29 06:21:18;;;;;;;4.82;1.80;;;;;;;11.06;78.25;99644.97;7387626;19;20443;-67
2022/09/29 06:23:46;;;;;;;9.55;3.60;;;;;;;11.11;78.54;99647.84;7385765;19;20333;-67
2022/09/29 06:26:15;;;;;;;7.38;2.50;;;;;;;11.12;78.58;99645.00;7387994;19;20321;-66
2022/09/29 06:28:49;;;;;;;3.40;1.10;;;;;;;11.17;78.39;99644.47;7387166;19;20094;-66
2022/09/29 06:31:21;;;;;;;3.08;1.25;;;;;;;11.19;78.29;99650.34;7385404;19;20043;-66
2022/09/29 06:33:51;;;;;;;4.57;0.88;;;;;;;11.21;78.18;99652.81;7386657;19;20037;-65
2022/09/29 06:39:07;;;;;;;4.68;1.30;;;;;;;11.24;77.88;99658.50;7383045;19;20598;-65
2022/09/29 06:41:34;;;;;;;4.13;1.00;;;;;;;11.28;78.23;99658.94;7387845;19;20018;-65
2022/09/29 06:44:02;;;;;;;4.05;1.23;;;;;;;11.28;77.94;99664.22;7384445;19;20037;-65
2022/09/29 06:46:29;;;;;;;5.35;1.10;;;;;;;11.27;78.13;99663.44;7385823;19;20014;-66
2022/09/29 06:48:56;;;;;;;3.10;1.30;;;;;;;11.28;77.82;99672.13;7385605;19;20423;-66
2022/09/29 06:51:24;;;;;;;4.72;1.38;;;;;;;11.25;77.96;99673.31;7387193;19;20033;-64
2022/09/29 06:54:12;;;;;;;3.92;1.40;;;;;;;11.29;78.51;99677.19;7385321;19;20160;-64
2022/09/29 06:56:39;;;;;;;5.85;1.48;;;;;;;11.29;78.41;99685.09;7387845;19;20025;-64
2022/09/29 06:59:07;;;;;;;5.97;1.20;;;;;;;11.30;78.54;99681.47;7385873;19;20124;-66
2022/09/29 07:01:34;;;;;;;4.60;1.13;;;;;;;11.32;78.30;99676.84;7387870;19;20042;-65
2022/09/29 07:04:01;;;;;;;3.67;1.08;;;;;;;11.34;78.11;99680.09;7383765;19;20018;-64
2022/09/29 07:06:29;;;;;;;3.38;1.10;;;;;;;11.35;78.37;99684.38;7385799;19;20011;-64
2022/09/29 07:08:57;;;;;;;3.40;1.30;;;;;;;11.36;78.33;99686.00;7384879;19;20038;-64
2022/09/29 07:11:25;;;;;;;3.03;1.17;;;;;;;11.40;78.42;99689.06;7388609;19;20031;-68
2022/09/29 07:13:53;;;;;;;3.28;1.50;;;;;;;11.42;78.26;99687.91;7384372;19;20030;-66
2022/09/29 07:16:24;;;;;;;5.72;1.75;;;;;;;11.44;77.83;99691.13;7384938;19;20039;-65
2022/09/29 07:18:52;;;;;;;7.78;1.85;;;;;;;11.44;77.45;99693.78;7385056;19;20034;-67
2022/09/29 07:21:20;;;;;;;9.02;2.22;;;;;;;11.46;77.81;99691.78;7383948;19;20011;-65
2022/09/29 07:23:48;;;;;;;5.78;2.50;;;;;;;11.47;77.79;99695.25;7383687;19;20022;-65
2022/09/29 07:26:16;;;;;;;4.53;1.40;;;;;;;11.50;78.00;99692.22;7384266;19;20010;-65
2022/09/29 07:28:45;;;;;;;6.53;1.58;;;;;;;11.53;77.93;99697.09;7383845;19;20038;-65
2022/09/29 07:31:14;;;;;;;6.20;1.77;;;;;;;11.55;77.69;99698.56;7385182;19;20426;-68
2022/09/29 07:33:46;;;;;;;6.43;1.90;;;;;;;11.58;77.78;99694.72;7384499;19;20014;-66
2022/09/29 07:36:15;;;;;;;4.65;1.80;;;;;;;11.61;77.84;99696.19;7385278;19;20352;-65
2022/09/29 07:38:46;;;;;;;3.72;1.30;;;;;;;11.65;77.78;99702.69;7382600;19;20022;-64
2022/09/29 07:41:13;;;;;;;4.70;1.67;;;;;;;11.70;77.99;99700.31;7387030;19;20046;-66
2022/09/29 07:43:40;;;;;;;3.50;1.52;;;;;;;11.73;78.04;99700.81;7384920;19;20014;-65
2022/09/29 07:46:07;;;;;;;4.03;1.30;;;;;;;11.78;77.62;99695.78;7385821;19;20018;-66
2022/09/29 07:48:36;;;;;;;10.35;1.58;;;;;;;11.97;84.67;99697.78;7382960;19;20017;-68
2022/09/29 07:51:14;;;;;;;4.85;2.17;;;;;;;12.11;82.98;99696.06;7386596;19;20014;-67
2022/09/29 07:53:45;;;;;;;4.50;2.17;;;;;;;12.08;78.27;99706.19;7382480;19;20014;-70
2022/09/29 07:56:17;;;;;;;3.95;1.27;;;;;;;12.09;77.36;99697.28;7383395;19;20042;-68
2022/09/29 07:58:49;;;;;;;5.28;1.95;;;;;;;12.07;77.05;99700.09;7384524;19;20015;-68
2022/09/29 08:01:17;;;;;;;6.30;1.63;;;;;;;12.06;76.66;99703.72;7386522;19;20015;-68
2022/09/29 08:03:50;;;;;;;6.43;1.83;;;;;;;12.09;77.13;99702.53;7384255;19;20010;-69
2022/09/29 08:06:18;;;;;;;4.25;1.67;;;;;;;12.09;76.94;99713.09;7385381;19;20114;-68
2022/09/29 08:08:46;;;;;;;3.88;1.95;;;;;;;12.11;77.23;99711.88;7384108;19;20014;-68
2022/09/29 08:11:28;;;;;;;;;;;;;;;12.10;76.64;99728.69;7387853;19;20014;-68
2022/09/29 08:13:59;;;;;;;3.92;1.40;;;;;;;12.09;76.95;99727.06;7382095;19;19982;-68
2022/09/29 08:16:26;;;;;;;9.98;2.55;;;;;;;12.10;77.13;99733.16;7386518;19;20473;-68
2022/09/29 08:18:53;;;;;;;3.60;1.17;;;;;;;12.13;77.34;99741.53;7382247;19;20444;-69
2022/09/29 08:21:20;;;;;;;3.03;1.27;;;;;;;12.13;77.62;99746.78;7386086;19;20682;-67
2022/09/29 08:23:47;;;;;;;4.85;1.33;;;;;;;12.19;78.09;99748.66;7381994;19;20126;-69
2022/09/29 08:26:16;;;;;;;4.90;1.60;;;;;;;12.24;77.52;99750.75;7385812;19;20010;-69
2022/09/29 08:28:44;;;;;;;6.50;2.05;;;;;;;12.29;77.49;99751.78;7383644;19;20031;-68
2022/09/29 08:31:13;;;;;;;4.60;1.65;;;;;;;12.40;77.46;99751.25;7383328;19;20015;-69
2022/09/29 08:33:42;;;;;;;5.13;1.58;;;;;;;12.44;77.57;99757.00;7378844;19;20475;-68
2022/09/29 08:36:15;;;;;;;7.18;2.35;;;;;;;12.49;77.56;99754.59;7385107;19;20246;-68
2022/09/29 08:38:50;;;;;;;5.75;1.98;;;;;;;12.60;77.58;99761.16;7386049;19;20351;-68
2022/09/29 08:41:35;;;;;;;6.07;2.13;;;;;;;12.64;77.18;99768.50;7392960;19;20011;-69
2022/09/29 08:44:17;;;;;;;5.05;1.60;;;;;;;12.69;77.11;99768.75;7389726;19;20301;-68
2022/09/29 08:47:35;;;;;;;5.72;2.28;;;;;;;12.71;77.14;99773.81;7390151;19;20102;-68
2022/09/29 08:50:27;;;;;;;6.88;2.35;;;;;;;12.79;77.03;99784.25;7388198;19;20021;-67
2022/09/29 08:53:01;;;;;;;4.45;1.77;;;;;;;12.76;77.26;99789.88;7389788;19;20041;-69
2022/09/29 08:55:51;;;;;;;4.53;1.60;;;;;;;12.79;76.89;99790.34;7389394;19;20317;-69
2022/09/29 08:58:19;;;;;;;4.03;1.40;;;;;;;12.80;77.04;99786.66;7386504;19;20010;-69
2022/09/29 09:01:26;;;;;;;8.68;1.40;;;;;;;12.83;77.30;99798.69;7389969;19;20048;-69
2022/09/29 09:04:02;;;;;;;7.57;2.35;;;;;;;12.85;77.31;99802.75;7387624;19;20554;-68
2022/09/29 09:06:47;;;;;;;6.85;1.88;;;;;;;12.92;77.26;99813.38;7391152;19;20752;-68
2022/09/29 09:09:28;;;;;;;6.63;1.52;;;;;;;12.97;77.13;99810.13;7389237;19;20733;-68
2022/09/29 09:12:20;;;;;;;7.72;1.65;;;;;;;13.07;77.17;99818.53;7391264;19;20042;-69
2022/09/29 09:15:14;;;;;;;10.48;1.88;;;;;;;13.11;76.61;99820.63;7390613;19;20018;-68
2022/09/29 09:18:08;;;;;;;18.98;2.88;;;;;;;13.12;76.62;99821.44;7390330;19;20038;-68
2022/09/29 09:20:43;;;;;;;6.47;1.98;;;;;;;13.17;76.20;99819.03;7387460;19;20018;-68
2022/09/29 09:23:28;;;;;;;5.35;2.05;;;;;;;13.14;76.65;99828.16;7389767;19;20074;-68
2022/09/29 09:26:03;;;;;;;6.88;2.20;;;;;;;13.13;76.93;99825.72;7390729;19;20018;-68
2022/09/29 09:28:39;;;;;;;7.15;1.73;;;;;;;13.20;76.41;99834.50;7385749;19;20038;-67
2022/09/29 09:31:20;;;;;;;5.30;2.35;;;;;;;13.26;76.71;99841.63;7304129;19;20014;-68
2022/09/29 09:33:55;;;;;;;10.87;2.07;;;;;;;13.33;76.12;99846.97;7357540;19;20532;-68
2022/09/29 09:36:34;;;;;;;;;;;;;;;13.41;75.68;99846.81;7384887;19;20256;-68
2022/09/29 09:39:04;;;;;;;4.25;1.48;;;;;;;13.44;75.24;99847.22;7382282;19;20384;-68
2022/09/29 09:41:35;;;;;;;4.13;1.40;;;;;;;13.44;75.21;99851.69;7384354;19;20053;-68
2022/09/29 09:44:12;;;;;;;3.20;1.60;;;;;;;13.43;75.31;99856.16;7383717;19;20019;-70
2022/09/29 09:46:46;;;;;;;5.50;1.63;;;;;;;13.45;75.49;99843.59;7382717;19;20739;-68
2022/09/29 09:49:23;;;;;;;8.18;1.75;;;;;;;13.46;75.39;99860.25;7382159;19;20416;-68
2022/09/29 09:52:11;;;;;;;5.85;2.70;;;;;;;13.50;76.05;99859.66;7384465;19;20679;-68
2022/09/29 09:55:09;;;;;;;3.85;1.95;;;;;;;13.55;75.64;99859.09;7376628;19;20024;-68
2022/09/29 09:57:55;;;;;;;5.82;2.05;;;;;;;13.60;75.80;99861.94;7384621;19;20014;-66
2022/09/29 10:00:32;;;;;;;6.28;2.22;;;;;;;13.67;75.75;99868.06;7384118;19;20478;-68
2022/09/29 10:03:04;;;;;;;4.75;2.20;;;;;;;13.76;75.55;99871.38;7384316;19;20011;-68
2022/09/29 10:05:44;;;;;;;3.95;1.95;;;;;;;13.82;75.03;99870.56;7382707;19;20025;-71
2022/09/29 10:08:38;;;;;;;5.53;1.77;;;;;;;13.86;75.18;99864.72;7382162;19;20018;-69
2022/09/29 10:11:22;;;;;;;5.68;1.67;;;;;;;13.86;74.64;99872.66;7384066;19;20443;-69
2022/09/29 10:13:57;;;;;;;5.53;1.60;;;;;;;13.87;74.82;99871.59;7382394;19;20014;-68
2022/09/29 10:16:32;;;;;;;4.13;1.80;;;;;;;13.93;75.13;99873.47;7384981;19;20015;-68
2022/09/29 10:18:59;;;;;;;7.13;1.77;;;;;;;14.01;74.82;99878.59;7382188;19;20022;-68
2022/09/29 10:21:37;;;;;;;3.90;1.17;;;;;;;14.06;74.37;99884.13;7385431;19;20386;-68
2022/09/29 10:24:08;;;;;;;4.68;1.02;;;;;;;14.10;73.96;99885.34;7386123;19;20018;-68
2022/09/29 10:26:43;;;;;;;3.50;0.75;;;;;;;14.20;72.84;99887.59;7388307;19;20011;-68
2022/09/29 10:29:31;;;;;;;1.65;0.60;;;;;;;14.27;72.73;99888.44;7385280;19;20340;-68
2022/09/29 10:32:20;;;;;;;3.58;0.95;;;;;;;14.34;73.69;99897.19;7385144;19;20010;-68
2022/09/29 10:35:05;;;;;;;3.97;0.73;;;;;;;14.44;72.67;99904.78;7380863;19;20014;-69
2022/09/29 10:37:41;;;;;;;1.75;0.65;;;;;;;14.52;71.69;99908.06;7386846;19;20521;-67
2022/09/29 10:40:09;;;;;;;5.18;0.60;;;;;;;14.57;71.00;99902.19;7385676;19;20018;-69
2022/09/29 10:42:42;;;;;;;2.00;0.40;;;;;;;14.60;69.61;99904.41;7385890;19;20052;-67
2022/09/29 10:45:17;;;;;;;3.83;0.50;;;;;;;14.58;69.86;99903.78;7383972;19;20018;-69
2022/09/29 10:48:09;;;;;;;8.73;1.30;;;;;;;14.57;70.77;99904.00;7384159;19;20014;-68
2022/09/29 10:50:57;;;;;;;2.60;0.52;;;;;;;14.60;70.01;99907.06;7384351;19;20513;-68
2022/09/29 10:53:44;;;;;;;1.95;0.32;;;;;;;14.63;69.98;99909.28;7383181;19;20090;-69
2022/09/29 10:56:26;;;;;;;2.22;0.43;;;;;;;14.63;70.13;99919.09;7386932;19;20090;-68
2022/09/29 10:58:57;;;;;;;2.00;0.50;;;;;;;14.65;71.10;99923.16;7383567;19;20007;-69
2022/09/29 11:01:33;;;;;;;2.65;0.60;;;;;;;14.67;71.48;99922.97;7385070;19;20799;-68
2022/09/29 11:04:12;;;;;;;1.45;0.75;;;;;;;14.73;72.17;99924.81;7385226;19;20090;-69
2022/09/29 11:06:40;;;;;;;2.60;0.60;;;;;;;14.77;72.08;99926.84;7382515;19;20023;-69
2022/09/29 11:09:15;;;;;;;1.90;0.50;;;;;;;14.84;71.21;99930.28;7379911;19;20631;-68
2022/09/29 11:11:53;;;;;;;1.23;0.45;;;;;;;14.88;71.12;99930.72;7386891;19;20081;-68
2022/09/29 11:14:37;;;;;;;0.90;0.40;;;;;;;14.93;70.72;99934.38;7383561;19;20018;-68
2022/09/29 11:17:23;;;;;;;1.98;0.40;;;;;;;15.00;69.57;99934.38;7386462;19;20010;-67
2022/09/29 11:19:52;;;;;;;1.80;0.40;;;;;;;15.06;69.46;99938.88;7385374;19;20011;-69
2022/09/29 11:22:56;;;;;;;1.33;0.40;;;;;;;15.06;69.40;99941.53;7385270;19;20513;-70
2022/09/29 11:25:38;;;;;;;1.50;0.65;;;;;;;15.10;69.68;99942.75;7382620;19;20058;-68
2022/09/29 11:28:41;;;;;;;2.85;0.50;;;;;;;15.12;69.81;99945.19;7382209;19;20082;-68
2022/09/29 11:31:14;;;;;;;4.68;0.50;;;;;;;15.14;70.16;99953.75;7381589;19;20038;-68
2022/09/29 11:33:56;;;;;;;3.38;0.50;;;;;;;15.22;70.26;99954.38;7379156;19;20042;-68
2022/09/29 11:36:43;;;;;;;2.80;0.83;;;;;;;15.22;70.72;99954.38;7375355;19;20022;-69
2022/09/29 11:39:18;;;;;;;2.30;0.40;;;;;;;15.24;69.98;99967.41;7380735;19;20487;-69
2022/09/29 11:42:13;;;;;;;3.72;0.60;;;;;;;15.23;69.33;99963.16;7382820;19;20568;-70
2022/09/29 11:44:57;;;;;;;1.08;0.40;;;;;;;15.19;69.35;99965.38;7377375;19;20006;-68
2022/09/29 11:47:32;;;;;;;1.90;0.40;;;;;;;15.09;69.75;99961.47;7380697;19;20014;-69
2022/09/29 11:50:11;;;;;;;2.33;0.55;;;;;;;15.02;70.18;99966.81;7379498;19;20011;-68
2022/09/29 11:52:46;;;;;;;1.52;0.43;;;;;;;14.96;70.63;99971.06;7379253;19;20011;-69
2022/09/29 11:55:28;;;;;;;2.40;0.43;;;;;;;14.92;70.51;99966.38;7379992;19;20023;-68
2022/09/29 11:58:23;;;;;;;1.88;0.45;;;;;;;14.90;69.96;99977.19;7380119;19;20026;-71
2022/09/29 12:01:25;;;;;;;1.95;0.75;;;;;;;14.88;69.60;99983.72;7378497;19;20027;-69
2022/09/29 12:04:18;;;;;;;0.70;0.40;;;;;;;14.91;68.10;99984.09;7379160;19;20014;-68
2022/09/29 12:06:57;;;;;;;0.75;0.35;;;;;;;14.91;67.50;99972.69;7380528;19;20026;-68
2022/09/29 12:09:59;;;;;;;2.58;0.82;;;;;;;14.90;67.61;99982.47;7376479;19;20015;-69